Time;durP1;ratioP1;P1;durP2;ratioP2;P2;SDS_P1;SDS_P2;PMS_P1;PMS_P2;Temp;Humidity;BMP_temperature;BMP_pressure;BME280_temperature;BME280_humidity;BME280_pressure;Samples;Min_cycle;Max_cycle;Signal;HPM_P1;HPM_P2
2022/06/10 00:00:53;;;;;;;7.85;5.60;;;;;;;13.90;100.00;96892.72;10292862;28;20221;-59
2022/06/10 00:06:00;;;;;;;6.57;5.32;;;;;;;13.99;100.00;96891.69;10292754;28;20336;-58
2022/06/10 00:11:01;;;;;;;9.68;6.03;;;;;;;13.98;100.00;96903.25;10292974;28;20245;-57
2022/06/10 00:16:03;;;;;;;7.40;5.82;;;;;;;13.85;100.00;96910.88;10292468;28;20269;-57
2022/06/10 00:21:06;;;;;;;9.18;6.82;;;;;;;13.80;100.00;96911.38;10292781;28;20223;-58
2022/06/10 00:26:07;;;;;;;10.63;7.10;;;;;;;13.42;100.00;96908.56;10292242;28;20261;-58
2022/06/10 00:31:07;;;;;;;9.40;6.68;;;;;;;13.59;100.00;96906.69;10291693;28;20702;-59
2022/06/10 00:36:09;;;;;;;7.88;6.57;;;;;;;13.65;100.00;96915.72;10292056;28;20994;-55
2022/06/10 00:41:09;;;;;;;9.45;6.55;;;;;;;13.63;100.00;96917.69;10291313;28;20226;-59
2022/06/10 00:46:27;;;;;;;8.38;6.38;;;;;;;13.64;100.00;96914.88;10291666;28;20219;-59
2022/06/10 00:51:41;;;;;;;16.60;6.60;;;;;;;13.60;100.00;96920.66;10291504;28;20202;-55
2022/06/10 00:56:45;;;;;;;7.78;6.57;;;;;;;13.23;100.00;96925.53;10289609;28;20218;-56
2022/06/10 01:01:45;;;;;;;12.30;6.18;;;;;;;13.12;100.00;96937.19;10288923;28;21278;-58
2022/06/10 01:06:46;;;;;;;8.50;6.47;;;;;;;13.18;100.00;96933.09;10312819;23;20350;-52
2022/06/10 01:12:01;;;;;;;8.93;5.70;;;;;;;13.10;100.00;96941.00;10291198;28;20196;-53
2022/06/10 01:17:12;;;;;;;8.30;6.63;;;;;;;12.82;100.00;96954.50;10290550;28;20272;-50
2022/06/10 01:22:40;;;;;;;8.35;6.80;;;;;;;12.87;100.00;96956.66;10289470;28;20190;-50
2022/06/10 01:28:17;;;;;;;9.50;6.93;;;;;;;12.83;100.00;96954.34;10289332;28;20249;-51
2022/06/10 01:33:36;;;;;;;12.45;6.22;;;;;;;12.88;100.00;96953.00;10288610;28;20264;-53
2022/06/10 01:38:51;;;;;;;8.98;5.55;;;;;;;12.76;100.00;96958.59;10288977;28;20246;-51
2022/06/10 01:44:16;;;;;;;6.90;6.13;;;;;;;12.87;100.00;96965.34;10288888;28;20703;-54
2022/06/10 01:49:29;;;;;;;10.00;6.55;;;;;;;12.64;100.00;96962.53;10289019;28;20194;-52
2022/06/10 01:54:44;;;;;;;8.32;5.82;;;;;;;12.73;100.00;96968.63;10291178;28;20222;-51
2022/06/10 01:59:49;;;;;;;11.07;5.88;;;;;;;12.60;100.00;96977.00;10290369;28;20226;-54
2022/06/10 02:04:54;;;;;;;8.18;6.05;;;;;;;12.65;100.00;96978.16;10288373;28;20273;-52
2022/06/10 02:10:28;;;;;;;9.88;6.63;;;;;;;12.57;100.00;96990.47;10288363;28;20186;-50
2022/06/10 02:15:36;;;;;;;9.82;6.20;;;;;;;12.63;100.00;97001.16;10287893;28;20222;-52
2022/06/10 02:20:41;;;;;;;8.82;6.95;;;;;;;12.29;100.00;96999.44;10286641;28;20225;-51
2022/06/10 02:25:48;;;;;;;10.77;6.20;;;;;;;12.30;100.00;97006.34;10285807;28;20658;-51
2022/06/10 02:30:53;;;;;;;8.38;7.00;;;;;;;12.08;100.00;97020.88;10288066;28;20270;-50
2022/06/10 02:36:00;;;;;;;13.05;7.07;;;;;;;12.05;100.00;97022.97;10287479;28;20214;-51
2022/06/10 02:41:29;;;;;;;9.45;6.53;;;;;;;12.05;100.00;97039.59;10287601;28;20250;-51
2022/06/10 02:46:35;;;;;;;9.95;7.25;;;;;;;11.77;100.00;97041.53;10267852;28;20226;-50
2022/06/10 02:51:36;;;;;;;9.38;5.82;;;;;;;11.77;100.00;97054.66;10288662;28;20197;-51
2022/06/10 02:56:37;;;;;;;11.75;6.65;;;;;;;11.49;100.00;97056.63;10292773;28;20702;-52
2022/06/10 03:01:56;;;;;;;9.93;6.43;;;;;;;11.51;100.00;97071.22;10295644;28;20226;-53
2022/06/10 03:07:22;;;;;;;11.97;6.27;;;;;;;11.50;100.00;97077.47;10255469;29;20278;-51
2022/06/10 03:12:31;;;;;;;10.55;6.22;;;;;;;11.59;100.00;97081.78;10255883;29;20196;-51
2022/06/10 03:17:53;;;;;;;7.50;5.50;;;;;;;11.78;100.00;97080.75;10254100;29;20235;-50
2022/06/10 03:23:06;;;;;;;12.52;5.55;;;;;;;11.71;100.00;97082.34;10255492;29;20204;-53
2022/06/10 03:28:39;;;;;;;8.13;5.85;;;;;;;11.62;100.00;97090.31;10269836;28;20270;-52
2022/06/10 03:33:56;;;;;;;10.60;6.88;;;;;;;11.52;100.00;97098.28;10269548;28;20214;-51
2022/06/10 03:38:56;;;;;;;11.15;6.57;;;;;;;11.63;100.00;97108.53;10269169;28;20585;-51
2022/06/10 03:43:58;;;;;;;8.80;6.22;;;;;;;11.90;100.00;97104.94;10254626;29;20278;-51
2022/06/10 03:49:06;;;;;;;10.80;5.80;;;;;;;11.82;100.00;97123.25;10252872;29;20187;-51
2022/06/10 03:54:07;;;;;;;12.05;5.95;;;;;;;11.99;100.00;97126.84;10253990;29;20215;-55
2022/06/10 03:59:08;;;;;;;8.48;6.20;;;;;;;12.27;100.00;97137.19;10253375;29;20222;-58
2022/06/10 04:04:09;;;;;;;7.97;6.40;;;;;;;12.57;100.00;97141.09;10253162;28;20239;-57
2022/06/10 04:09:12;;;;;;;10.18;6.78;;;;;;;12.65;100.00;97137.69;10253038;29;20195;-57
2022/06/10 04:14:12;;;;;;;8.18;6.45;;;;;;;12.89;100.00;97144.78;10253119;29;20356;-58
2022/06/10 04:19:13;;;;;;;11.88;6.30;;;;;;;12.70;100.00;97139.84;10252955;29;20335;-55
2022/06/10 04:24:13;;;;;;;9.98;6.10;;;;;;;12.55;100.00;97136.97;10252600;29;20219;-57
2022/06/10 04:29:15;;;;;;;8.23;6.28;;;;;;;12.65;100.00;97141.13;10252453;29;20219;-56
2022/06/10 04:34:15;;;;;;;10.13;6.13;;;;;;;13.03;100.00;97135.47;10252215;29;20222;-59
2022/06/10 04:39:16;;;;;;;6.22;5.10;;;;;;;13.53;100.00;97149.53;10252030;29;20223;-55
2022/06/10 04:44:16;;;;;;;6.97;5.15;;;;;;;13.55;100.00;97145.75;10251986;29;20219;-57
2022/06/10 04:49:17;;;;;;;6.78;4.70;;;;;;;13.63;100.00;97147.56;10251929;29;20198;-54
2022/06/10 04:54:17;;;;;;;7.57;5.00;;;;;;;13.67;100.00;97155.94;10251628;29;20215;-57
2022/06/10 04:59:18;;;;;;;4.10;3.70;;;;;;;13.88;100.00;97161.53;10251403;29;20737;-59
2022/06/10 05:04:18;;;;;;;6.85;3.88;;;;;;;14.33;100.00;97169.84;10250814;29;20724;-57
2022/06/10 05:09:19;;;;;;;6.40;4.13;;;;;;;14.30;100.00;97154.38;10251581;29;20722;-54
2022/06/10 05:14:20;;;;;;;5.82;3.72;;;;;;;14.51;100.00;97167.00;10250647;29;20225;-57
2022/06/10 05:19:21;;;;;;;6.63;3.17;;;;;;;14.94;100.00;97164.84;10250783;28;20219;-52
2022/06/10 05:24:21;;;;;;;6.13;3.33;;;;;;;14.95;100.00;97178.88;10250591;29;20222;-59
2022/06/10 05:29:21;;;;;;;3.63;3.00;;;;;;;15.60;100.00;97175.00;10250303;29;20282;-54
2022/06/10 05:39:40;;;;;;;5.97;1.98;;;;;;;15.82;90.00;97146.97;10250276;28;20222;-55
2022/06/10 05:44:43;;;;;;;2.55;1.75;;;;;;;15.61;88.42;97147.59;10250008;29;20223;-59
2022/06/10 05:49:46;;;;;;;5.97;2.25;;;;;;;16.14;88.30;97152.09;10249972;29;20191;-57
2022/06/10 05:54:48;;;;;;;4.68;2.45;;;;;;;16.08;87.46;97150.19;10250094;29;20230;-58
2022/06/10 05:59:52;;;;;;;2.90;1.98;;;;;;;16.70;84.97;97136.59;10249368;29;20226;-56
2022/06/10 06:04:52;;;;;;;5.35;2.20;;;;;;;16.79;83.23;97139.97;10249653;29;20235;-57
2022/06/10 06:09:53;;;;;;;3.88;1.90;;;;;;;16.67;82.41;97136.16;10266223;28;20188;-58
2022/06/10 06:14:54;;;;;;;7.30;2.05;;;;;;;16.86;81.93;97140.03;10250768;29;20211;-57
2022/06/10 06:19:54;;;;;;;3.53;2.05;;;;;;;16.18;82.72;97159.50;10251588;29;20223;-55
2022/06/10 06:24:54;;;;;;;5.07;1.73;;;;;;;16.77;78.70;97118.97;10249056;29;20268;-56
2022/06/10 06:29:55;;;;;;;3.85;1.60;;;;;;;16.79;79.92;97147.91;10253285;28;20211;-57
2022/06/10 06:34:55;;;;;;;2.60;1.58;;;;;;;17.30;76.88;97109.97;10256754;29;20270;-56
2022/06/10 06:39:56;;;;;;;3.10;1.50;;;;;;;17.14;79.63;97153.44;10284415;28;20597;-58
2022/06/10 06:44:56;;;;;;;4.53;1.80;;;;;;;17.77;76.61;97132.41;10295127;28;20630;-55
2022/06/10 06:49:56;;;;;;;3.30;1.60;;;;;;;17.35;79.01;97170.31;10297365;28;20194;-58
2022/06/10 06:54:57;;;;;;;4.22;1.60;;;;;;;17.32;77.49;97142.41;10334901;28;20755;-57
2022/06/10 07:00:05;;;;;;;3.72;1.25;;;;;;;17.00;78.68;97173.63;10334114;28;20313;-59
2022/06/10 07:05:06;;;;;;;2.45;1.70;;;;;;;16.77;81.19;97198.34;10335203;28;20238;-57
2022/06/10 07:10:08;;;;;;;6.70;1.70;;;;;;;18.04;75.92;97145.06;10335390;28;20269;-60
2022/06/10 07:15:09;;;;;;;8.13;1.60;;;;;;;18.89;72.51;97105.94;10333947;28;20209;-57
2022/06/10 07:20:20;;;;;;;2.97;1.30;;;;;;;18.76;71.49;97100.56;10320823;28;20219;-59
2022/06/10 07:25:21;;;;;;;5.10;1.50;;;;;;;19.33;70.68;97101.16;10290081;28;20227;-58
2022/06/10 07:30:24;;;;;;;4.32;1.67;;;;;;;19.11;73.27;97150.94;10291951;28;20225;-59
2022/06/10 07:35:26;;;;;;;3.78;1.75;;;;;;;19.39;72.27;97130.38;10290893;28;20294;-56
2022/06/10 07:45:52;;;;;;;5.95;1.85;;;;;;;19.81;69.99;97124.09;10290017;28;20226;-55
2022/06/10 07:50:53;;;;;;;4.35;1.77;;;;;;;19.64;69.32;97113.03;10290206;28;20686;-61
2022/06/10 07:55:53;;;;;;;6.55;1.58;;;;;;;21.15;64.61;97065.94;10286576;28;20305;-57
2022/06/10 08:00:54;;;;;;;3.88;1.52;;;;;;;19.62;69.33;97134.50;10288451;28;20321;-55
2022/06/10 08:05:54;;;;;;;7.18;1.92;;;;;;;20.31;68.09;97121.78;10289839;28;20352;-55
2022/06/10 08:10:55;;;;;;;7.95;1.70;;;;;;;19.76;72.45;97177.84;10287383;28;20195;-56
2022/06/10 08:15:56;;;;;;;4.13;1.73;;;;;;;20.38;68.96;97121.75;10288111;28;20219;-57
2022/06/10 08:26:17;;;;;;;3.55;1.60;;;;;;;19.43;72.54;97195.38;10289965;28;20210;-53
2022/06/10 08:31:25;;;;;;;3.83;1.80;;;;;;;19.03;75.15;97218.31;10299312;28;20556;-59
2022/06/10 08:36:26;;;;;;;7.43;2.55;;;;;;;18.94;75.02;97207.03;10296800;28;20234;-58
2022/06/10 08:41:38;;;;;;;6.97;2.30;;;;;;;18.55;77.12;97229.69;10290294;28;20321;-58
2022/06/10 08:46:57;;;;;;;5.18;2.40;;;;;;;18.13;78.52;97242.84;10289124;28;20277;-55
2022/06/10 08:52:18;;;;;;;3.85;1.73;;;;;;;18.89;77.50;97222.75;10287139;28;20205;-58
2022/06/10 08:57:44;;;;;;;2.90;1.95;;;;;;;19.43;76.43;97218.47;10289054;28;20284;-57
2022/06/10 09:03:00;;;;;;;5.25;1.95;;;;;;;20.01;72.27;97171.94;10287484;28;20228;-59
2022/06/10 09:08:03;;;;;;;5.55;1.63;;;;;;;20.77;72.36;97192.72;10286156;28;20234;-56
2022/06/10 09:13:24;;;;;;;7.60;1.88;;;;;;;22.59;63.72;97076.53;10286499;28;20600;-60
2022/06/10 09:18:36;;;;;;;2.75;1.60;;;;;;;22.68;62.53;97068.19;10286973;28;20736;-58
2022/06/10 09:23:43;;;;;;;4.72;2.17;;;;;;;20.74;67.33;97149.72;10287458;28;20221;-58
2022/06/10 09:28:43;;;;;;;5.68;1.98;;;;;;;21.98;63.98;97102.22;10286643;28;20265;-53
2022/06/10 09:33:57;;;;;;;6.40;2.20;;;;;;;23.54;57.66;97019.88;10285751;28;20230;-58
2022/06/10 09:39:04;;;;;;;5.15;1.65;;;;;;;23.14;60.82;97093.53;10286267;28;20222;-59
2022/06/10 09:44:42;;;;;;;6.78;2.00;;;;;;;21.43;63.58;97124.16;10287156;28;20213;-55
2022/06/10 09:49:54;;;;;;;3.20;1.83;;;;;;;21.14;64.64;97144.22;10288668;28;20197;-53
2022/06/10 09:55:27;;;;;;;8.00;2.30;;;;;;;20.79;66.95;97180.00;10286860;28;20245;-57
2022/06/10 10:00:41;;;;;;;3.88;1.83;;;;;;;21.46;64.11;97144.25;10284154;28;20230;-54
2022/06/10 10:06:05;;;;;;;5.45;2.25;;;;;;;21.85;62.65;97126.31;10281476;28;20250;-56
2022/06/10 10:11:12;;;;;;;4.30;1.70;;;;;;;21.80;63.70;97139.50;10284130;28;20241;-58
2022/06/10 10:16:31;;;;;;;6.05;1.90;;;;;;;21.27;66.09;97180.63;10284265;28;20225;-58
2022/06/10 10:22:00;;;;;;;3.78;1.48;;;;;;;22.03;61.28;97097.03;10285686;28;20786;-58
2022/06/10 10:27:00;;;;;;;2.15;1.42;;;;;;;22.47;61.90;97114.91;10286486;28;20211;-60
2022/06/10 10:32:08;;;;;;;3.97;1.58;;;;;;;23.19;56.91;97032.19;10284291;28;20191;-59
2022/06/10 10:37:26;;;;;;;3.90;1.60;;;;;;;23.98;54.29;96994.44;10281717;28;20222;-57
2022/06/10 10:42:30;;;;;;;3.78;1.60;;;;;;;23.97;56.34;97054.34;10284758;28;20268;-62
2022/06/10 10:47:32;;;;;;;4.35;1.67;;;;;;;22.71;60.19;97114.00;10284016;28;20210;-59
2022/06/10 10:52:32;;;;;;;4.15;1.50;;;;;;;23.13;57.87;97074.00;10283107;28;20305;-59
2022/06/10 10:57:36;;;;;;;7.43;1.67;;;;;;;24.62;53.11;97009.63;10284735;28;20245;-60
2022/06/10 11:02:52;;;;;;;3.95;1.13;;;;;;;26.43;48.86;96959.50;10284135;28;20210;-62
2022/06/10 11:08:14;;;;;;;2.83;1.20;;;;;;;26.75;49.16;96983.78;10283144;28;20249;-62
2022/06/10 11:13:18;;;;;;;3.35;1.38;;;;;;;25.32;49.05;96918.38;10283889;28;20198;-62
2022/06/10 11:18:18;;;;;;;5.75;1.55;;;;;;;25.49;50.16;96969.31;10288970;28;20214;-61
2022/06/10 11:23:26;;;;;;;3.35;1.55;;;;;;;26.28;50.06;96992.38;10291159;28;20199;-58
2022/06/10 11:28:27;;;;;;;4.57;1.65;;;;;;;24.72;53.18;97017.88;10334841;28;20198;-59
2022/06/10 11:33:44;;;;;;;3.72;1.92;;;;;;;25.07;52.62;97026.81;10345852;28;20217;-57
2022/06/10 11:39:11;;;;;;;3.47;1.60;;;;;;;25.19;52.56;97022.19;10302348;28;20724;-58
2022/06/10 11:44:16;;;;;;;2.45;1.30;;;;;;;24.48;50.73;96952.84;10292176;28;20217;-61
2022/06/10 11:49:22;;;;;;;3.13;1.27;;;;;;;23.11;53.06;96958.50;10287954;28;20670;-60
2022/06/10 11:54:29;;;;;;;6.15;1.80;;;;;;;21.07;56.45;96980.94;10288873;28;20218;-61
2022/06/10 12:00:08;;;;;;;5.80;2.10;;;;;;;24.56;50.51;96955.16;10288218;28;20229;-60
2022/06/10 12:05:09;;;;;;;3.03;1.75;;;;;;;25.54;44.62;96821.81;10289701;28;20234;-60
2022/06/10 12:10:14;;;;;;;5.03;1.60;;;;;;;25.68;46.63;96879.44;10289896;28;20204;-59
2022/06/10 12:15:25;;;;;;;5.97;2.00;;;;;;;28.38;43.26;96896.25;10294519;28;20222;-61
2022/06/10 12:20:38;;;;;;;3.90;1.58;;;;;;;27.89;45.21;96923.56;10290603;28;20230;-61
2022/06/10 12:25:57;;;;;;;4.53;1.40;;;;;;;26.23;48.80;96957.41;10288153;28;20207;-60
2022/06/10 12:31:08;;;;;;;3.75;1.20;;;;;;;26.26;48.78;96949.63;10251807;29;20184;-61
2022/06/10 12:36:15;;;;;;;1.77;1.40;;;;;;;25.93;49.24;96956.75;10250311;29;20223;-60
2022/06/10 12:41:22;;;;;;;5.03;1.63;;;;;;;24.82;50.36;96944.88;10251461;29;20234;-59
2022/06/10 12:46:38;;;;;;;2.72;1.60;;;;;;;25.38;49.66;96952.25;10288775;28;20223;-59
2022/06/10 12:51:43;;;;;;;2.03;1.27;;;;;;;25.96;47.22;96897.19;10290575;28;20201;-59
2022/06/10 12:56:44;;;;;;;6.47;1.40;;;;;;;24.49;52.21;96983.13;10290389;28;20229;-60
2022/06/10 13:01:46;;;;;;;4.78;1.52;;;;;;;23.68;53.93;96999.91;10290012;28;20288;-60
2022/06/10 13:06:46;;;;;;;5.80;1.30;;;;;;;23.94;52.95;96977.22;10364635;23;20246;-60
2022/06/10 13:11:56;;;;;;;2.53;1.67;;;;;;;25.36;48.76;96914.94;10370118;28;20588;-59
2022/06/10 13:16:59;;;;;;;22.10;5.05;;;;;;;26.84;44.40;96855.09;10368529;28;20217;-58
2022/06/10 13:22:25;;;;;;;5.53;1.70;;;;;;;25.98;43.83;96792.28;10370961;28;20263;-60
2022/06/10 13:27:30;;;;;;;5.60;1.65;;;;;;;22.72;51.27;96895.78;10369264;28;20216;-58
2022/06/10 13:32:31;;;;;;;2.47;1.50;;;;;;;24.48;45.92;96816.25;10370011;28;20193;-57
2022/06/10 13:37:36;;;;;;;2.03;1.40;;;;;;;25.75;46.04;96866.63;10367652;28;20225;-60
2022/06/10 13:42:39;;;;;;;3.50;1.40;;;;;;;24.51;49.60;96914.84;10367535;28;20462;-58
2022/06/10 13:47:52;;;;;;;3.58;1.90;;;;;;;23.69;51.54;96932.78;10365946;28;20735;-57
2022/06/10 13:52:55;;;;;;;3.97;2.90;;;;;;;23.71;50.88;96913.03;10369105;28;20664;-58
2022/06/10 13:58:15;;;;;;;5.10;2.10;;;;;;;24.33;50.40;96929.25;10368788;28;20303;-61
2022/06/10 14:03:25;;;;;;;6.55;3.53;;;;;;;25.00;49.03;96918.91;10367299;28;20197;-59
2022/06/10 14:08:30;;;;;;;3.42;1.92;;;;;;;26.16;48.37;96936.91;10367216;28;20852;-60
2022/06/10 14:13:31;;;;;;;5.35;1.55;;;;;;;29.02;40.23;96799.75;10364746;28;20189;-60
2022/06/10 14:18:31;;;;;;;5.00;1.33;;;;;;;32.29;36.79;96825.50;10368316;28;20220;-60
2022/06/10 14:23:35;;;;;;;2.25;1.35;;;;;;;28.68;41.35;96800.31;10367244;28;20455;-60
2022/06/10 14:28:36;;;;;;;3.88;1.00;;;;;;;28.80;40.63;96790.06;10368518;28;20193;-60
2022/06/10 14:33:46;;;;;;;3.38;1.50;;;;;;;27.94;43.38;96848.97;10368055;28;20204;-58
2022/06/10 14:39:18;;;;;;;3.53;1.10;;;;;;;29.39;40.03;96793.19;10367983;28;20238;-60
2022/06/10 14:44:21;;;;;;;2.97;1.05;;;;;;;27.67;42.19;96794.50;10367173;28;20218;-58
2022/06/10 14:49:26;;;;;;;2.90;1.00;;;;;;;27.81;41.00;96774.09;10369230;28;20181;-60
2022/06/10 14:54:27;;;;;;;2.03;0.90;;;;;;;29.80;40.05;96821.88;10373918;28;20217;-60
2022/06/10 14:59:29;;;;;;;3.50;0.90;;;;;;;31.51;35.76;96741.72;10374498;28;20247;-60
2022/06/10 15:04:29;;;;;;;2.88;1.25;;;;;;;32.74;33.49;96711.13;10374476;28;20243;-60
2022/06/10 15:09:38;;;;;;;1.73;0.83;;;;;;;31.90;35.38;96719.00;10374889;28;20191;-60
2022/06/10 15:14:39;;;;;;;3.42;0.80;;;;;;;30.69;36.41;96712.88;10374166;28;20482;-59
2022/06/10 15:19:39;;;;;;;2.85;0.95;;;;;;;30.21;36.92;96711.69;10373566;28;20209;-59
2022/06/10 15:24:40;;;;;;;3.10;1.20;;;;;;;31.21;35.80;96730.19;10373105;28;20584;-60
2022/06/10 15:29:40;;;;;;;3.73;1.40;;;;;;;32.16;34.70;96732.97;10374276;28;20196;-60
2022/06/10 15:45:19;;;;;;;3.80;1.13;;;;;;;28.93;39.57;96734.78;10373465;28;20557;-61
2022/06/10 15:50:20;;;;;;;2.03;1.10;;;;;;;28.31;40.24;96736.72;10373907;28;20197;-60
2022/06/10 16:00:48;;;;;;;2.65;0.93;;;;;;;28.23;39.25;96694.97;10372044;28;20711;-60
2022/06/10 16:05:49;;;;;;;4.80;1.15;;;;;;;27.15;41.94;96745.88;10372392;28;20259;-60
2022/06/10 16:10:53;;;;;;;4.20;1.25;;;;;;;26.30;45.26;96808.41;10373044;28;20604;-59
2022/06/10 16:15:56;;;;;;;8.43;1.95;;;;;;;26.11;45.37;96812.53;10372653;28;20212;-61
2022/06/10 16:20:58;;;;;;;2.38;1.25;;;;;;;27.00;42.24;96767.31;10372599;28;20252;-60
2022/06/10 16:26:02;;;;;;;2.08;1.13;;;;;;;26.08;44.48;96786.19;10372409;28;20726;-57
2022/06/10 16:31:02;;;;;;;4.28;0.90;;;;;;;25.96;43.55;96772.91;10371826;28;20243;-59
2022/06/10 16:36:03;;;;;;;4.07;0.93;;;;;;;25.10;44.99;96774.31;10373457;28;20213;-57
2022/06/10 16:41:09;;;;;;;5.13;1.10;;;;;;;25.21;45.74;96796.72;10372774;28;20709;-57
2022/06/10 16:46:15;;;;;;;3.55;1.20;;;;;;;25.01;46.54;96813.31;10372697;28;20244;-57
2022/06/10 16:51:17;;;;;;;5.03;1.15;;;;;;;24.50;47.31;96822.19;10372358;28;20817;-56
2022/06/10 16:56:21;;;;;;;4.90;1.45;;;;;;;23.87;48.49;96824.00;10369527;28;20240;-52
2022/06/10 17:01:25;;;;;;;2.00;1.05;;;;;;;24.24;47.87;96828.94;10367162;28;20600;-54
2022/06/10 17:06:25;;;;;;;5.03;1.38;;;;;;;23.64;49.24;96848.94;10369497;28;20256;-54
2022/06/10 17:11:36;;;;;;;3.95;1.30;;;;;;;23.27;50.14;96865.28;10371908;28;20217;-58
2022/06/10 17:16:38;;;;;;;3.08;1.52;;;;;;;23.44;49.70;96863.50;10371441;28;20221;-57
2022/06/10 17:21:38;;;;;;;5.40;1.48;;;;;;;22.73;52.96;96927.59;10369853;28;20232;-55
2022/06/10 17:26:51;;;;;;;2.40;1.15;;;;;;;22.38;53.32;96922.97;10371278;28;20300;-55
2022/06/10 17:31:51;;;;;;;5.03;1.20;;;;;;;21.61;55.26;96955.47;10371014;28;20189;-54
2022/06/10 17:36:52;;;;;;;3.00;1.20;;;;;;;21.78;54.60;96947.72;10371120;28;20213;-54
2022/06/10 17:41:53;;;;;;;3.53;1.42;;;;;;;21.89;55.13;96968.28;10370774;28;20216;-60
2022/06/10 17:46:56;;;;;;;4.78;1.23;;;;;;;21.86;55.01;96960.75;10370704;28;20641;-60
2022/06/10 17:52:03;;;;;;;3.22;1.45;;;;;;;21.56;56.74;96992.63;10370846;28;20284;-59
2022/06/10 17:57:31;;;;;;;2.33;0.90;;;;;;;21.40;56.15;96978.00;10370428;28;20304;-60
2022/06/10 18:02:35;;;;;;;3.17;1.00;;;;;;;21.21;56.28;96990.47;10370504;28;20319;-57
2022/06/10 18:07:35;;;;;;;2.60;1.20;;;;;;;21.15;57.16;96996.66;10369719;28;20244;-61
2022/06/10 18:12:38;;;;;;;4.55;1.45;;;;;;;21.05;57.67;97007.78;10370575;28;20196;-60
2022/06/10 18:17:41;;;;;;;6.07;1.35;;;;;;;20.89;58.75;97027.78;10368525;28;20227;-59
2022/06/10 18:22:41;;;;;;;3.08;1.13;;;;;;;20.60;60.01;97050.44;10369742;28;20201;-60
2022/06/10 18:27:42;;;;;;;5.10;1.38;;;;;;;20.42;61.03;97064.44;10375095;28;20232;-60
2022/06/10 18:32:43;;;;;;;2.92;1.40;;;;;;;20.20;61.10;97059.38;10376705;28;20197;-60
2022/06/10 18:37:45;;;;;;;2.28;1.05;;;;;;;19.70;62.90;97088.28;10376445;28;20220;-60
2022/06/10 18:42:49;;;;;;;1.92;1.65;;;;;;;19.21;65.26;97130.94;10365146;28;20292;-60
2022/06/10 18:47:49;;;;;;;7.82;2.28;;;;;;;18.04;70.14;97185.69;10361395;28;20636;-59
2022/06/10 18:52:50;;;;;;;2.65;1.77;;;;;;;16.85;76.27;97202.72;10376739;28;20217;-56
2022/06/10 18:57:53;;;;;;;5.05;2.22;;;;;;;16.08;81.79;97197.75;10361478;28;20362;-58
2022/06/10 19:02:54;;;;;;;11.20;2.67;;;;;;;15.58;88.65;97187.56;10374064;28;20217;-58
2022/06/10 19:07:54;;;;;;;4.22;1.80;;;;;;;15.82;88.24;97180.50;10406047;23;20248;-57
2022/06/10 19:12:55;;;;;;;4.25;2.38;;;;;;;15.73;88.78;97192.91;10376512;28;20191;-59
2022/06/10 19:17:56;;;;;;;3.75;3.28;;;;;;;15.48;90.46;97197.53;10375906;28;20229;-56
2022/06/10 19:22:59;;;;;;;6.30;2.30;;;;;;;15.36;91.46;97206.84;10375810;28;20208;-57
2022/06/10 19:28:01;;;;;;;2.58;2.38;;;;;;;15.14;94.50;97211.94;10376026;28;20205;-56
2022/06/10 19:33:04;;;;;;;10.07;4.40;;;;;;;14.98;96.39;97213.66;10375761;28;20190;-58
2022/06/10 19:38:10;;;;;;;3.85;2.70;;;;;;;14.80;98.26;97218.34;10375530;28;20228;-58
2022/06/10 19:49:03;;;;;;;8.70;3.55;;;;;;;14.54;100.00;97227.28;10349662;28;20928;-60
2022/06/10 19:54:04;;;;;;;4.40;2.97;;;;;;;14.45;100.00;97239.66;10373368;28;20197;-58
2022/06/10 19:59:05;;;;;;;3.53;2.65;;;;;;;14.28;100.00;97238.88;10374630;28;20315;-59
2022/06/10 20:04:23;;;;;;;6.53;2.80;;;;;;;14.18;100.00;97237.41;10374133;28;20197;-59
2022/06/10 20:09:27;;;;;;;4.75;2.95;;;;;;;14.12;100.00;97244.19;10373866;28;20201;-57
2022/06/10 20:14:28;;;;;;;6.22;2.72;;;;;;;14.06;100.00;97247.47;10373298;28;20225;-60
2022/06/10 20:19:32;;;;;;;3.58;2.63;;;;;;;13.90;100.00;97249.13;10372951;28;20213;-59
2022/06/10 20:24:32;;;;;;;5.68;2.80;;;;;;;13.80;100.00;97253.72;10372693;28;20217;-60
2022/06/10 20:29:32;;;;;;;4.32;3.08;;;;;;;13.60;100.00;97249.72;10373138;28;20564;-60
2022/06/10 20:34:38;;;;;;;5.22;3.05;;;;;;;13.44;100.00;97250.53;10373041;28;20582;-59
2022/06/10 20:39:40;;;;;;;6.30;3.03;;;;;;;13.29;100.00;97259.03;10372437;28;20302;-59
2022/06/10 20:44:44;;;;;;;4.07;3.05;;;;;;;13.19;100.00;97255.69;10372378;28;20215;-58
2022/06/10 20:49:47;;;;;;;3.65;2.85;;;;;;;13.08;100.00;97256.81;10371909;28;20189;-59
2022/06/10 20:54:49;;;;;;;8.05;3.63;;;;;;;12.89;100.00;97257.88;10371812;28;20212;-60
2022/06/10 20:59:49;;;;;;;5.25;3.47;;;;;;;12.83;100.00;97259.34;10372089;28;20224;-58
2022/06/10 21:10:09;;;;;;;7.55;3.20;;;;;;;12.66;100.00;97265.47;10371539;28;20186;-58
2022/06/10 21:15:37;;;;;;;5.97;3.72;;;;;;;12.60;100.00;97252.97;10370940;28;20541;-53
2022/06/10 21:20:43;;;;;;;4.75;3.60;;;;;;;12.45;100.00;97244.81;10360633;28;20236;-58
2022/06/10 21:25:45;;;;;;;4.00;3.17;;;;;;;12.34;100.00;97258.22;10370023;28;20589;-59
2022/06/10 21:30:56;;;;;;;19.88;3.80;;;;;;;12.21;100.00;97256.00;10371577;28;20189;-59
2022/06/10 21:35:56;;;;;;;3.95;3.28;;;;;;;12.12;100.00;97248.06;10371128;28;20272;-56
2022/06/10 21:40:57;;;;;;;4.80;3.55;;;;;;;12.04;100.00;97247.19;10370709;28;20271;-59
2022/06/10 21:45:58;;;;;;;5.03;3.35;;;;;;;12.05;100.00;97261.94;10370767;28;20244;-55
2022/06/10 21:51:00;;;;;;;6.15;4.15;;;;;;;11.88;100.00;97253.94;10370633;28;20224;-55
2022/06/10 21:56:07;;;;;;;5.55;3.65;;;;;;;11.79;100.00;97252.19;10370423;28;20263;-56
2022/06/10 22:01:23;;;;;;;7.82;3.60;;;;;;;11.73;100.00;97245.75;10369551;28;20247;-55
2022/06/10 22:06:27;;;;;;;7.32;3.58;;;;;;;11.66;100.00;97251.75;10369957;28;20717;-57
2022/06/10 22:11:29;;;;;;;5.33;3.53;;;;;;;11.59;100.00;97260.22;10369919;28;20196;-57
2022/06/10 22:16:48;;;;;;;5.53;3.78;;;;;;;11.52;100.00;97255.72;10369722;28;20202;-59
2022/06/10 22:21:51;;;;;;;5.90;3.65;;;;;;;11.50;100.00;97253.25;10368185;28;20221;-58
2022/06/10 22:26:53;;;;;;;7.33;3.57;;;;;;;11.37;100.00;97250.16;10369734;28;20217;-59
2022/06/10 22:31:54;;;;;;;5.07;3.47;;;;;;;11.36;100.00;97254.59;10369360;28;20189;-57
2022/06/10 22:36:55;;;;;;;10.47;3.60;;;;;;;11.32;100.00;97253.22;10369370;28;20700;-59
2022/06/10 22:41:55;;;;;;;6.17;3.83;;;;;;;11.26;100.00;97248.56;10369487;28;20229;-54
2022/06/10 22:46:58;;;;;;;3.90;2.77;;;;;;;11.18;100.00;97251.09;10369063;28;20205;-55
2022/06/10 22:52:31;;;;;;;4.17;3.77;;;;;;;11.04;100.00;97258.50;10368215;28;20193;-59
2022/06/10 22:57:35;;;;;;;6.97;3.93;;;;;;;11.02;100.00;97252.53;10369016;28;20586;-58
2022/06/10 23:02:41;;;;;;;5.70;3.67;;;;;;;11.06;100.00;97253.09;10369061;28;20663;-59
2022/06/10 23:07:45;;;;;;;5.50;3.57;;;;;;;11.02;100.00;97251.72;10368725;28;20691;-58
2022/06/10 23:12:45;;;;;;;5.87;3.53;;;;;;;11.00;100.00;97251.06;10372448;28;20190;-57
2022/06/10 23:17:48;;;;;;;5.07;3.40;;;;;;;10.99;100.00;97247.59;10375956;28;20655;-57
2022/06/10 23:22:48;;;;;;;4.60;3.23;;;;;;;10.98;100.00;97250.38;10375426;28;20212;-59
2022/06/10 23:27:49;;;;;;;7.97;3.60;;;;;;;10.89;100.00;97250.28;10375544;28;20213;-57
2022/06/10 23:32:52;;;;;;;4.17;3.63;;;;;;;10.84;100.00;97241.19;10375612;28;20208;-59
2022/06/10 23:37:56;;;;;;;6.75;3.50;;;;;;;10.73;100.00;97242.19;10374008;28;20209;-56
2022/06/10 23:42:58;;;;;;;4.33;3.47;;;;;;;10.68;100.00;97245.25;10374009;28;20623;-60
2022/06/10 23:53:18;;;;;;;4.50;3.30;;;;;;;10.67;100.00;97245.41;10374813;28;20849;-57
